Time;durP1;ratioP1;P1;durP2;ratioP2;P2;SDS_P1;SDS_P2;PMS_P1;PMS_P2;Temp;Humidity;BMP_temperature;BMP_pressure;BME280_temperature;BME280_humidity;BME280_pressure;Samples;Min_cycle;Max_cycle;Signal;HPM_P1;HPM_P2
2022/04/19 00:02:11;;;;;;;1.35;1.20;;;;;;;20.09;34.49;96485.09;10356305;28;20042;-80
2022/04/19 00:07:31;;;;;;;1.10;1.00;;;;;;;20.08;34.54;96472.72;10367030;28;20041;-80
2022/04/19 00:12:50;;;;;;;1.90;1.38;;;;;;;20.07;34.51;96469.25;10371474;28;20051;-80
2022/04/19 00:18:11;;;;;;;1.38;1.08;;;;;;;20.06;34.53;96464.94;10366453;28;20046;-80
2022/04/19 00:23:31;;;;;;;1.10;1.00;;;;;;;20.06;34.69;96466.88;10356268;28;20393;-80
2022/04/19 00:28:50;;;;;;;1.67;1.15;;;;;;;20.03;34.68;96454.81;10353312;28;20049;-80
2022/04/19 00:34:10;;;;;;;1.25;1.15;;;;;;;20.03;34.63;96451.31;10368452;28;20072;-80
2022/04/19 00:39:29;;;;;;;1.10;1.00;;;;;;;20.02;34.59;96438.91;10385034;28;20054;-81
2022/04/19 00:44:48;;;;;;;1.33;1.00;;;;;;;20.00;34.72;96430.34;10368414;28;20042;-80
2022/04/19 00:50:08;;;;;;;1.30;1.00;;;;;;;19.99;34.80;96423.34;10373345;28;20420;-80
2022/04/19 00:55:30;;;;;;;1.42;1.10;;;;;;;19.97;34.73;96406.69;10356348;28;20053;-80
2022/04/19 01:00:50;;;;;;;1.23;1.08;;;;;;;19.95;34.72;96407.00;10342864;28;20119;-80
2022/04/19 01:06:10;;;;;;;0.90;0.90;;;;;;;19.95;34.77;96396.19;10355544;28;20392;-80
2022/04/19 01:17:09;;;;;;;;;;;;;;;19.91;34.81;96382.56;10354605;28;20050;-80
2022/04/19 01:22:42;;;;;;;1.23;1.10;;;;;;;19.90;34.74;96383.69;10347339;28;19921;-80
2022/04/19 01:28:02;;;;;;;0.80;0.80;;;;;;;19.89;34.86;96384.03;10362636;28;20046;-79
2022/04/19 01:33:22;;;;;;;0.98;0.90;;;;;;;19.89;34.67;96374.00;10367308;28;20073;-79
2022/04/19 01:38:43;;;;;;;2.13;1.02;;;;;;;19.86;34.87;96371.97;10354627;28;20050;-80
2022/04/19 01:44:07;;;;;;;1.38;1.10;;;;;;;19.86;34.92;96365.78;10353803;28;20046;-80
2022/04/19 01:49:28;;;;;;;1.10;1.00;;;;;;;19.85;34.98;96362.28;10332642;28;20038;-80
2022/04/19 01:54:47;;;;;;;1.08;0.98;;;;;;;19.84;34.84;96360.72;10368330;28;20511;-80
2022/04/19 02:00:16;;;;;;;0.88;0.82;;;;;;;19.81;34.88;96355.97;10339783;28;20054;-80
2022/04/19 02:05:37;;;;;;;1.30;0.93;;;;;;;19.81;34.94;96349.78;10362159;28;20161;-80
2022/04/19 02:11:00;;;;;;;2.10;0.90;;;;;;;19.80;35.03;96348.19;10378062;28;20476;-80
2022/04/19 02:16:19;;;;;;;1.05;0.90;;;;;;;19.78;34.97;96337.75;10363983;28;20050;-80
2022/04/19 02:21:41;;;;;;;0.95;0.95;;;;;;;19.77;34.96;96338.06;10362582;28;20038;-81
2022/04/19 02:27:03;;;;;;;0.80;0.80;;;;;;;19.77;35.11;96335.38;10360613;28;20038;-80
2022/04/19 02:32:23;;;;;;;1.23;0.80;;;;;;;19.75;34.93;96335.69;10370822;28;20038;-80
2022/04/19 02:37:48;;;;;;;1.23;0.90;;;;;;;19.73;34.74;96324.44;10332685;28;20077;-80
2022/04/19 02:43:08;;;;;;;1.23;1.00;;;;;;;19.71;35.00;96324.78;10345534;28;20091;-80
2022/04/19 02:48:30;;;;;;;1.45;0.90;;;;;;;19.72;34.99;96330.97;10374569;28;20049;-80
2022/04/19 02:53:51;;;;;;;0.98;0.88;;;;;;;19.71;34.93;96326.66;10367016;28;20090;-80
2022/04/19 02:59:10;;;;;;;1.20;1.10;;;;;;;19.69;35.19;96334.31;10350118;28;20404;-80
2022/04/19 03:04:30;;;;;;;0.93;0.93;;;;;;;19.68;35.00;96335.44;10344501;28;20038;-80
2022/04/19 03:09:50;;;;;;;1.02;0.93;;;;;;;19.67;35.06;96333.88;10367659;28;20042;-79
2022/04/19 03:15:15;;;;;;;1.30;1.20;;;;;;;19.65;34.84;96320.69;10379477;28;20042;-80
2022/04/19 03:20:35;;;;;;;1.05;1.00;;;;;;;19.64;34.84;96319.13;10370790;28;20053;-80
2022/04/19 03:31:34;;;;;;;1.10;1.00;;;;;;;19.62;34.96;96304.34;10359372;28;20045;-80
2022/04/19 03:36:54;;;;;;;1.10;1.00;;;;;;;19.60;35.23;96299.31;10390955;28;20685;-80
2022/04/19 03:42:14;;;;;;;1.20;1.10;;;;;;;19.60;35.04;96298.50;10374946;28;20053;-80
2022/04/19 03:47:34;;;;;;;1.52;1.08;;;;;;;19.60;34.81;96295.78;10344558;28;20083;-80
2022/04/19 03:52:54;;;;;;;1.45;0.90;;;;;;;19.59;34.99;96291.53;10361624;28;20076;-80
2022/04/19 03:58:15;;;;;;;1.20;1.08;;;;;;;19.59;35.04;96294.22;10338017;28;20054;-80
2022/04/19 04:03:35;;;;;;;1.55;1.02;;;;;;;19.58;34.97;96288.00;10357275;28;20045;-80
2022/04/19 04:08:56;;;;;;;1.17;1.08;;;;;;;19.59;35.08;96288.81;10360995;28;20045;-80
2022/04/19 04:14:16;;;;;;;1.25;1.10;;;;;;;19.60;35.61;96284.97;10351474;28;20507;-80
2022/04/19 04:19:35;;;;;;;1.30;1.10;;;;;;;19.59;35.57;96278.03;10347007;28;20067;-80
2022/04/19 04:24:55;;;;;;;1.23;1.10;;;;;;;19.60;35.71;96282.28;10378082;28;20044;-80
2022/04/19 04:30:16;;;;;;;1.15;1.00;;;;;;;19.61;35.95;96278.47;10357727;28;20034;-80
2022/04/19 04:35:45;;;;;;;3.13;0.97;;;;;;;19.61;36.00;96271.13;10339270;28;20432;-80
2022/04/19 04:41:05;;;;;;;1.20;1.10;;;;;;;19.63;35.92;96262.72;10369688;28;20044;-80
2022/04/19 04:52:04;;;;;;;2.85;1.20;;;;;;;19.67;36.31;96261.69;10369143;28;20045;-79
2022/04/19 04:57:24;;;;;;;1.15;1.05;;;;;;;19.70;36.44;96257.53;10369479;28;20574;-82
2022/04/19 05:02:44;;;;;;;2.58;1.23;;;;;;;19.71;36.42;96251.00;10329732;28;20481;-81
2022/04/19 05:08:04;;;;;;;1.35;1.20;;;;;;;19.75;36.31;96257.31;10343752;28;20034;-81
2022/04/19 05:13:25;;;;;;;3.97;2.03;;;;;;;19.78;36.58;96247.75;10353784;28;20041;-81
2022/04/19 05:18:45;;;;;;;9.88;4.03;;;;;;;19.81;36.38;96245.16;10350038;28;20038;-81
2022/04/19 05:24:06;;;;;;;11.77;5.25;;;;;;;19.85;36.43;96254.16;10379795;28;20042;-81
2022/04/19 05:29:25;;;;;;;13.38;5.65;;;;;;;19.88;36.56;96237.28;10354033;28;20042;-81
2022/04/19 05:34:47;;;;;;;16.15;6.15;;;;;;;19.93;36.44;96237.06;10351408;28;20451;-81
2022/04/19 05:40:07;;;;;;;14.95;6.35;;;;;;;19.97;36.49;96222.84;10361544;28;20512;-81
2022/04/19 05:45:30;;;;;;;16.35;6.18;;;;;;;20.00;36.53;96216.75;10367917;28;20041;-81
2022/04/19 05:50:49;;;;;;;15.05;6.90;;;;;;;20.02;36.43;96217.22;10362647;28;20046;-81
2022/04/19 05:56:09;;;;;;;15.45;6.85;;;;;;;20.05;36.36;96209.22;10361078;28;20045;-81
2022/04/19 06:04:51;;;;;;;15.80;6.85;;;;;;;20.08;36.65;96199.63;10299030;28;20050;-81
2022/04/19 06:07:08;;;;;;;15.65;7.22;;;;;;;20.10;36.62;96205.47;10331847;28;20042;-81
2022/04/19 06:12:29;;;;;;;14.27;6.68;;;;;;;20.12;36.49;96203.22;10315098;28;20042;-81
2022/04/19 06:17:50;;;;;;;15.45;7.28;;;;;;;20.14;36.53;96206.34;10318320;28;20050;-81
2022/04/19 06:23:48;;;;;;;18.00;7.57;;;;;;;20.15;36.48;96191.72;10202239;29;20051;-80
2022/04/19 06:29:08;;;;;;;13.25;6.93;;;;;;;20.16;36.45;96193.28;10307978;28;20464;-80
2022/04/19 06:34:31;;;;;;;16.35;7.28;;;;;;;20.17;36.58;96191.34;10316120;28;20096;-80
2022/04/19 06:40:00;;;;;;;14.23;6.80;;;;;;;20.19;36.45;96192.59;10319135;28;20052;-80
2022/04/19 06:45:20;;;;;;;14.60;6.57;;;;;;;20.19;36.45;96176.38;10333203;28;20050;-80
2022/04/19 06:50:49;;;;;;;12.77;6.32;;;;;;;20.20;36.38;96180.66;10298498;28;20046;-80
2022/04/19 06:56:10;;;;;;;14.43;6.63;;;;;;;20.22;36.50;96183.00;10330853;28;20121;-80
2022/04/19 07:01:30;;;;;;;9.45;5.78;;;;;;;20.21;35.81;96179.53;10336462;28;20054;-80
2022/04/19 07:07:10;;;;;;;11.57;5.43;;;;;;;20.22;36.02;96174.91;10335311;28;20076;-80
2022/04/19 07:12:33;;;;;;;12.35;5.38;;;;;;;20.23;36.03;96171.06;10389238;28;20116;-80
2022/04/19 07:18:02;;;;;;;9.68;5.30;;;;;;;20.23;36.10;96166.44;10339541;28;20046;-79
2022/04/19 07:29:01;;;;;;;7.75;5.22;;;;;;;20.24;36.20;96159.13;10354356;28;20050;-79
2022/04/19 07:34:20;;;;;;;10.52;5.38;;;;;;;20.25;36.19;96158.00;10352424;28;20068;-80
2022/04/19 07:39:40;;;;;;;8.13;4.85;;;;;;;20.25;36.01;96163.41;10346930;28;20077;-80
2022/04/19 07:45:00;;;;;;;7.82;4.57;;;;;;;20.24;36.19;96151.78;10354767;28;20065;-80
2022/04/19 07:50:21;;;;;;;9.15;5.40;;;;;;;20.24;36.14;96140.97;10337282;28;20046;-79
2022/04/19 07:55:41;;;;;;;8.50;4.90;;;;;;;20.25;36.17;96137.13;10372542;28;20481;-80
2022/04/19 08:01:01;;;;;;;9.85;5.03;;;;;;;20.26;36.08;96138.69;10329663;28;20046;-80
2022/04/19 08:06:22;;;;;;;8.55;5.07;;;;;;;20.25;36.17;96142.56;10346026;28;20453;-80
2022/04/19 08:11:42;;;;;;;7.32;4.32;;;;;;;20.26;36.23;96151.44;10340373;28;20172;-80
2022/04/19 08:17:02;;;;;;;7.43;4.32;;;;;;;20.27;36.31;96147.63;10377514;28;20168;-79
2022/04/19 08:22:23;;;;;;;8.60;4.15;;;;;;;20.25;36.43;96142.56;10335875;28;20042;-80
2022/04/19 08:27:52;;;;;;;;;;;;;;;20.25;36.33;96152.59;10369605;28;20045;-80
2022/04/19 08:33:12;;;;;;;7.38;3.92;;;;;;;20.24;36.45;96149.06;10342360;28;19941;-80
2022/04/19 08:38:32;;;;;;;7.18;4.10;;;;;;;20.24;36.22;96154.47;10372399;28;20045;-80
2022/04/19 08:43:52;;;;;;;6.97;4.25;;;;;;;20.24;36.40;96156.41;10358776;28;21515;-80
2022/04/19 08:49:12;;;;;;;8.45;4.20;;;;;;;20.24;36.39;96156.41;10368453;28;20401;-80
2022/04/19 09:00:12;;;;;;;7.18;3.90;;;;;;;20.22;36.41;96159.44;10356578;28;20133;-80
2022/04/19 09:05:32;;;;;;;5.68;3.65;;;;;;;20.22;36.47;96159.44;10343674;28;20132;-81
2022/04/19 09:11:04;;;;;;;6.68;4.07;;;;;;;20.22;36.33;96156.75;10381557;28;20504;-80
2022/04/19 09:16:24;;;;;;;6.07;3.70;;;;;;;20.22;36.22;96153.25;10329901;28;20403;-80
2022/04/19 09:21:44;;;;;;;7.90;3.90;;;;;;;20.21;36.45;96157.91;10336109;28;20589;-80
2022/04/19 09:27:03;;;;;;;6.22;3.58;;;;;;;20.21;36.41;96163.31;10357564;28;20554;-80
2022/04/19 09:32:23;;;;;;;5.95;3.83;;;;;;;20.19;36.47;96157.44;10372033;28;20038;-79
2022/04/19 09:37:49;;;;;;;5.78;3.63;;;;;;;20.19;36.65;96160.16;10367362;28;20122;-79
2022/04/19 09:43:11;;;;;;;5.75;3.50;;;;;;;20.18;36.55;96169.38;10335225;28;20485;-80
2022/04/19 09:48:35;;;;;;;4.63;3.25;;;;;;;20.18;36.64;96174.78;10382622;28;20041;-80
2022/04/19 09:53:55;;;;;;;5.32;3.47;;;;;;;20.16;36.49;96171.66;10370512;28;20116;-79
2022/04/19 09:59:16;;;;;;;6.10;3.60;;;;;;;20.16;36.79;96179.75;10347697;28;20519;-80
2022/04/19 10:10:13;;;;;;;6.33;3.60;;;;;;;20.12;36.76;96189.69;10340845;28;20725;-79
2022/04/19 10:15:37;;;;;;;5.78;3.45;;;;;;;20.13;36.87;96193.94;10368017;28;20301;-80
2022/04/19 10:20:59;;;;;;;4.55;3.17;;;;;;;20.10;36.99;96194.66;10365217;28;20061;-80
2022/04/19 10:26:21;;;;;;;7.13;3.53;;;;;;;20.11;37.23;96194.31;10361476;28;20042;-80
2022/04/19 10:31:41;;;;;;;5.55;3.35;;;;;;;20.09;37.33;96199.28;10373513;28;20042;-79
2022/04/19 10:37:19;;;;;;;5.45;3.10;;;;;;;20.11;37.96;96215.13;10368586;28;20034;-79
2022/04/19 10:42:40;;;;;;;;;;;;;;;20.08;37.96;96197.69;10372806;28;20103;-79
2022/04/19 10:48:04;;;;;;;4.78;3.05;;;;;;;20.08;37.98;96205.03;10361672;28;19925;-79
2022/04/19 10:53:32;;;;;;;5.70;3.05;;;;;;;20.08;37.98;96199.63;10359251;28;20044;-79
2022/04/19 10:58:52;;;;;;;3.40;2.83;;;;;;;20.07;38.38;96189.91;10366614;28;20050;-79
2022/04/19 11:04:35;;;;;;;5.07;3.00;;;;;;;20.07;38.54;96189.91;10363351;28;20555;-79
2022/04/19 11:10:01;;;;;;;3.92;2.90;;;;;;;20.06;38.61;96193.75;10334251;28;20096;-80
2022/04/19 11:15:37;;;;;;;4.57;2.90;;;;;;;20.05;38.20;96209.22;10360799;28;20045;-79
2022/04/19 11:20:58;;;;;;;3.28;2.63;;;;;;;20.05;38.69;96276.00;10360564;28;20057;-79
2022/04/19 11:26:24;;;;;;;5.00;2.63;;;;;;;20.04;38.67;96304.19;10347158;28;20037;-79
2022/04/19 11:31:44;;;;;;;4.15;3.03;;;;;;;20.02;38.64;96301.03;10359972;28;20382;-79
2022/04/19 11:37:04;;;;;;;4.43;2.90;;;;;;;20.01;38.43;96307.53;10372324;28;20052;-79
2022/04/19 11:48:02;;;;;;;3.17;2.43;;;;;;;19.99;38.91;96302.47;10366597;28;20042;-79
2022/04/19 11:53:24;;;;;;;4.10;2.80;;;;;;;19.98;38.88;96279.28;10354284;28;20113;-80
2022/04/19 11:58:53;;;;;;;3.03;2.45;;;;;;;19.97;39.03;96266.09;10329848;28;20566;-79
2022/04/19 12:04:14;;;;;;;4.20;2.70;;;;;;;19.96;39.10;96276.13;10374992;28;20073;-80
2022/04/19 12:09:34;;;;;;;3.45;2.60;;;;;;;19.95;39.01;96283.47;10370250;28;20065;-79
2022/04/19 12:14:54;;;;;;;3.92;2.30;;;;;;;19.95;39.07;96306.97;10339656;28;20053;-80
2022/04/19 12:20:14;;;;;;;4.03;2.60;;;;;;;19.92;39.15;96324.69;10384947;28;20045;-79
2022/04/19 12:25:34;;;;;;;3.30;2.35;;;;;;;19.93;39.09;96312.75;10377320;28;20081;-79
2022/04/19 12:30:53;;;;;;;4.60;2.30;;;;;;;19.91;39.29;96306.88;10349412;28;20084;-79
2022/04/19 12:36:13;;;;;;;3.47;2.47;;;;;;;19.91;39.04;96319.59;10339383;28;20080;-79
2022/04/19 12:41:38;;;;;;;3.38;2.20;;;;;;;19.89;39.12;96352.38;10334449;28;20498;-79
2022/04/19 12:46:58;;;;;;;2.72;2.05;;;;;;;19.88;39.05;96355.44;10370032;28;20471;-79
2022/04/19 12:52:18;;;;;;;2.35;2.05;;;;;;;19.87;39.12;96343.81;10352129;28;20061;-80
2022/04/19 12:57:41;;;;;;;2.67;2.25;;;;;;;19.86;39.32;96344.16;10340466;28;20054;-79
2022/04/19 13:03:01;;;;;;;2.33;2.05;;;;;;;19.86;39.12;96344.94;10339160;28;20046;-79
2022/04/19 13:14:00;;;;;;;2.72;2.30;;;;;;;19.85;39.12;96335.25;10323976;28;20701;-79
2022/04/19 13:19:20;;;;;;;2.75;2.33;;;;;;;19.82;39.33;96319.72;10334679;28;20095;-79
2022/04/19 13:24:41;;;;;;;2.60;2.08;;;;;;;19.83;39.09;96321.28;10334525;28;20046;-79
2022/04/19 13:30:13;;;;;;;2.50;2.00;;;;;;;19.83;39.33;96315.09;10321253;28;20038;-79
2022/04/19 13:35:32;;;;;;;2.65;2.20;;;;;;;19.81;39.28;96315.44;10348185;28;20046;-79
2022/04/19 13:40:52;;;;;;;2.25;1.90;;;;;;;19.81;39.34;96317.34;10366159;28;20054;-79
2022/04/19 13:46:12;;;;;;;2.92;2.10;;;;;;;19.80;39.57;96310.34;10380779;28;20042;-79
2022/04/19 13:51:32;;;;;;;2.78;2.03;;;;;;;19.81;39.41;96320.84;10341934;28;20117;-79
2022/04/19 13:56:51;;;;;;;3.15;1.75;;;;;;;19.81;39.44;96317.34;10366039;28;20042;-79
2022/04/19 14:02:12;;;;;;;1.75;1.65;;;;;;;19.78;39.24;96318.81;10376825;28;20045;-80
2022/04/19 14:07:33;;;;;;;4.72;1.88;;;;;;;19.79;39.47;96325.00;10371526;28;20046;-79
2022/04/19 14:12:52;;;;;;;2.92;1.95;;;;;;;19.78;39.87;96326.94;10358553;28;20034;-79
2022/04/19 14:18:13;;;;;;;2.63;1.77;;;;;;;19.77;39.94;96328.03;10373910;28;20061;-79
2022/04/19 14:23:33;;;;;;;2.47;1.80;;;;;;;19.77;39.85;96332.66;10349300;28;20048;-79
2022/04/19 14:34:30;;;;;;;2.17;1.70;;;;;;;19.75;39.93;96347.28;10363908;28;20042;-79
2022/04/19 14:39:51;;;;;;;4.53;2.00;;;;;;;19.74;39.98;96356.53;10372948;28;20068;-79
2022/04/19 14:45:12;;;;;;;2.83;1.77;;;;;;;19.74;39.92;96364.66;10365907;28;20065;-79
2022/04/19 14:50:32;;;;;;;3.25;1.60;;;;;;;19.74;40.03;96361.16;10362063;28;20038;-79
2022/04/19 14:55:52;;;;;;;4.15;2.05;;;;;;;19.72;40.17;96368.81;10345611;28;20096;-79
2022/04/19 15:01:13;;;;;;;3.92;1.60;;;;;;;19.73;40.20;96370.38;10363110;28;20056;-78
2022/04/19 15:06:33;;;;;;;1.88;1.65;;;;;;;19.72;40.36;96382.34;10358208;28;20048;-78
2022/04/19 15:11:54;;;;;;;2.42;1.67;;;;;;;19.71;40.25;96391.53;10374155;28;20113;-79
2022/04/19 15:17:15;;;;;;;2.55;1.70;;;;;;;19.72;40.42;96414.75;10355339;28;20057;-79
2022/04/19 15:22:35;;;;;;;2.45;1.70;;;;;;;19.72;40.44;96415.53;10352921;28;20428;-79
2022/04/19 15:27:55;;;;;;;2.05;1.55;;;;;;;19.73;40.51;96421.72;10353657;28;20060;-79
2022/04/19 15:33:15;;;;;;;1.50;1.40;;;;;;;19.74;40.47;96415.22;10364755;28;20053;-79
2022/04/19 15:38:35;;;;;;;2.53;1.60;;;;;;;19.73;40.39;96409.00;10355516;28;20064;-78
2022/04/19 15:43:54;;;;;;;2.55;1.60;;;;;;;19.73;40.41;96406.28;10357897;28;20432;-78
2022/04/19 15:49:13;;;;;;;1.60;1.50;;;;;;;19.74;40.33;96404.41;10384151;28;20057;-78
2022/04/19 15:54:33;;;;;;;1.85;1.63;;;;;;;19.75;40.59;96412.16;10384875;28;20053;-79
2022/04/19 15:59:53;;;;;;;2.53;2.15;;;;;;;19.59;34.91;96418.53;10376208;28;20053;-80
2022/04/19 16:05:12;;;;;;;3.83;1.83;;;;;;;19.27;33.68;96418.19;10376622;28;20073;-80
2022/04/19 16:10:34;;;;;;;5.22;2.67;;;;;;;19.02;33.01;96428.84;10371656;28;20057;-80
2022/04/19 16:23:20;;;;;;;4.75;1.90;;;;;;;19.09;34.37;96429.13;10356163;28;20053;-79
2022/04/19 16:27:12;;;;;;;4.10;1.57;;;;;;;19.29;33.78;96426.75;10359066;28;20049;-79
2022/04/19 16:32:34;;;;;;;3.78;1.40;;;;;;;19.34;33.57;96434.63;10371430;28;20045;-80
2022/04/19 16:37:54;;;;;;;1.63;1.35;;;;;;;19.38;34.03;96432.06;10376035;28;20103;-79
2022/04/19 16:43:13;;;;;;;1.50;1.20;;;;;;;19.39;34.09;96434.44;10359157;28;20489;-79
2022/04/19 16:48:33;;;;;;;1.20;1.10;;;;;;;19.42;34.16;96444.56;10344757;28;20033;-79
2022/04/19 16:53:52;;;;;;;1.98;1.08;;;;;;;19.45;33.83;96453.94;10350577;28;20045;-79
2022/04/19 16:59:12;;;;;;;4.28;1.05;;;;;;;19.47;33.83;96465.97;10354646;28;20057;-80
2022/04/19 17:04:32;;;;;;;1.38;0.98;;;;;;;19.50;33.83;96472.63;10349617;28;20107;-80
2022/04/19 17:09:52;;;;;;;1.60;1.00;;;;;;;19.50;34.27;96480.72;10355565;28;20045;-79
2022/04/19 17:15:12;;;;;;;1.30;1.00;;;;;;;19.50;34.37;96480.72;10368142;28;20041;-80
2022/04/19 17:20:32;;;;;;;2.58;1.00;;;;;;;19.50;35.26;96495.03;10368367;28;20432;-80
2022/04/19 17:25:52;;;;;;;2.75;1.17;;;;;;;19.53;35.49;96504.41;10347135;28;20437;-79
2022/04/19 17:31:12;;;;;;;3.65;1.15;;;;;;;19.53;35.89;96507.88;10366377;28;20046;-79
2022/04/19 17:36:31;;;;;;;1.83;1.15;;;;;;;19.56;36.58;96517.22;10349513;28;20378;-79
2022/04/19 17:41:51;;;;;;;3.92;1.60;;;;;;;19.48;34.71;96513.50;10368870;28;20396;-80
2022/04/19 17:47:11;;;;;;;3.10;1.60;;;;;;;19.50;36.56;96522.06;10345906;28;20614;-79
2022/04/19 17:58:09;;;;;;;6.22;1.35;;;;;;;19.56;37.34;96523.44;10364921;28;20149;-79
2022/04/19 18:03:30;;;;;;;8.52;1.98;;;;;;;19.56;36.19;96534.25;10363502;28;20158;-79
2022/04/19 18:08:50;;;;;;;4.45;1.55;;;;;;;19.58;37.20;96530.41;10353693;28;20037;-80
2022/04/19 18:14:10;;;;;;;3.45;1.50;;;;;;;19.60;37.68;96537.09;10358873;28;20046;-80
2022/04/19 18:19:30;;;;;;;2.35;1.50;;;;;;;19.63;38.03;96544.50;10357895;28;20045;-80
2022/04/19 18:30:28;;;;;;;3.40;1.92;;;;;;;19.71;39.24;96561.78;10387269;28;20096;-80
2022/04/19 18:35:48;;;;;;;55.58;40.70;;;;;;;19.74;40.03;96569.28;10381803;28;20041;-80
2022/04/19 18:41:08;;;;;;;15.10;10.93;;;;;;;19.72;37.20;96574.22;10422486;28;20045;-80
2022/04/19 18:46:28;;;;;;;17.65;10.75;;;;;;;19.75;39.36;96585.13;10376819;28;20037;-80
2022/04/19 18:51:48;;;;;;;20.85;13.43;;;;;;;19.81;39.90;96591.13;10363919;28;20037;-79
2022/04/19 18:57:07;;;;;;;20.55;13.57;;;;;;;19.88;40.22;96601.44;10373421;28;20111;-79
2022/04/19 19:02:27;;;;;;;22.85;13.13;;;;;;;19.90;40.30;96605.38;10339346;28;20045;-78
2022/04/19 19:07:48;;;;;;;16.13;12.68;;;;;;;19.94;40.55;96619.03;10355920;28;20037;-78
2022/04/19 19:13:07;;;;;;;17.30;11.88;;;;;;;19.98;40.78;96619.94;10357894;28;20057;-78
2022/04/19 19:18:28;;;;;;;15.73;11.82;;;;;;;20.03;40.98;96625.16;10343597;28;20042;-78
2022/04/19 19:23:50;;;;;;;15.65;11.15;;;;;;;20.07;41.11;96638.78;10373450;28;20044;-79
2022/04/19 19:29:10;;;;;;;18.63;11.68;;;;;;;20.11;41.19;96634.31;10356574;28;20046;-78
2022/04/19 19:34:30;;;;;;;13.80;10.50;;;;;;;20.15;41.54;96646.06;10370246;28;20042;-80
2022/04/19 19:39:50;;;;;;;13.32;10.35;;;;;;;20.20;41.62;96659.38;10352244;28;20048;-80
2022/04/19 19:45:10;;;;;;;13.68;10.85;;;;;;;20.26;42.12;96668.06;10361153;28;20070;-79
2022/04/19 19:50:30;;;;;;;15.45;10.40;;;;;;;20.29;42.18;96672.84;10364660;28;20060;-79
2022/04/19 19:55:49;;;;;;;13.73;10.07;;;;;;;20.29;42.32;96673.63;10376932;28;20069;-79
2022/04/19 20:01:09;;;;;;;14.13;9.98;;;;;;;20.32;42.41;96680.28;10354135;28;20065;-79
2022/04/19 20:06:29;;;;;;;14.65;9.40;;;;;;;20.34;42.62;96689.63;10349194;28;20484;-79
2022/04/19 20:11:49;;;;;;;14.43;9.18;;;;;;;20.38;42.62;96691.69;10349767;28;20044;-78
2022/04/19 20:17:08;;;;;;;12.68;8.48;;;;;;;20.37;42.75;96696.31;10308198;28;20054;-78
2022/04/19 20:22:28;;;;;;;11.68;8.23;;;;;;;20.40;42.62;96686.72;10350751;28;20414;-78
2022/04/19 20:27:48;;;;;;;13.38;8.80;;;;;;;20.40;42.73;96697.56;10345725;28;20045;-78
2022/04/19 20:33:08;;;;;;;11.07;8.35;;;;;;;20.40;42.64;96692.13;10352693;28;20034;-79
2022/04/19 20:38:28;;;;;;;12.52;7.72;;;;;;;20.42;42.85;96692.59;10390105;28;20119;-80
2022/04/19 20:43:50;;;;;;;11.63;8.07;;;;;;;20.43;42.80;96691.50;10376657;28;20118;-78
2022/04/19 20:54:48;;;;;;;10.10;7.70;;;;;;;20.46;42.91;96698.94;10374583;28;20038;-80
2022/04/19 21:00:13;;;;;;;10.48;8.07;;;;;;;20.44;42.98;96698.47;10344583;28;20046;-80
2022/04/19 21:05:33;;;;;;;9.90;7.30;;;;;;;20.45;43.18;96692.72;10369653;28;20067;-80
2022/04/19 21:10:53;;;;;;;10.13;7.28;;;;;;;20.45;43.14;96702.78;10368827;28;20400;-80
2022/04/19 21:16:12;;;;;;;7.75;6.63;;;;;;;20.45;43.30;96703.56;10378973;28;20049;-80
2022/04/19 21:21:31;;;;;;;9.90;6.47;;;;;;;20.45;43.32;96695.44;10399416;28;20041;-80
2022/04/19 21:26:51;;;;;;;9.18;6.43;;;;;;;20.47;43.61;96709.44;10365873;28;20057;-80
2022/04/19 21:32:13;;;;;;;7.80;6.28;;;;;;;20.47;43.49;96708.63;10334378;28;20053;-80
2022/04/19 21:37:34;;;;;;;9.05;6.60;;;;;;;20.47;43.75;96712.13;10337408;28;20046;-80
2022/04/19 21:42:54;;;;;;;7.63;6.45;;;;;;;20.45;43.79;96711.66;10346122;28;20121;-80
2022/04/19 21:48:14;;;;;;;8.25;6.03;;;;;;;20.47;43.80;96716.75;10372859;28;20037;-80
2022/04/19 21:53:34;;;;;;;8.20;6.20;;;;;;;20.45;43.81;96714.38;10355716;28;20038;-80
2022/04/19 21:58:54;;;;;;;9.05;6.38;;;;;;;20.45;43.93;96719.00;10340955;28;20058;-80
2022/04/19 22:04:13;;;;;;;8.20;6.45;;;;;;;20.46;43.93;96731.41;10382335;28;20081;-80
2022/04/19 22:09:33;;;;;;;8.82;6.32;;;;;;;20.45;44.17;96730.63;10360963;28;20034;-80
2022/04/19 22:14:53;;;;;;;6.90;5.65;;;;;;;20.44;43.99;96718.19;10352698;28;20060;-80
2022/04/19 22:20:13;;;;;;;8.55;5.93;;;;;;;20.43;43.63;96715.84;10385490;28;20049;-79
2022/04/19 22:25:33;;;;;;;7.07;5.88;;;;;;;20.43;43.79;96707.72;10356269;28;20034;-80
2022/04/19 22:30:52;;;;;;;7.60;5.47;;;;;;;20.42;43.77;96717.72;10387415;28;20038;-80
2022/04/19 22:36:12;;;;;;;8.90;5.65;;;;;;;20.41;43.58;96716.16;10355244;28;20046;-80
2022/04/19 22:41:32;;;;;;;6.28;5.15;;;;;;;20.41;43.77;96710.75;10380711;28;20061;-80
2022/04/19 22:46:52;;;;;;;7.07;5.50;;;;;;;20.39;43.58;96706.81;10374947;28;20057;-80
2022/04/19 22:52:11;;;;;;;6.95;5.28;;;;;;;20.38;43.60;96711.41;10402433;28;20073;-80
2022/04/19 22:57:30;;;;;;;6.57;4.88;;;;;;;20.38;43.65;96705.22;10349930;28;20046;-80
2022/04/19 23:02:51;;;;;;;7.55;5.10;;;;;;;20.36;43.65;96705.53;10359434;28;20052;-79
2022/04/19 23:08:10;;;;;;;6.78;5.00;;;;;;;20.35;43.70;96712.88;10370106;28;20041;-80
2022/04/19 23:13:30;;;;;;;6.45;4.82;;;;;;;20.34;43.61;96713.97;10383730;28;20091;-81
2022/04/19 23:18:49;;;;;;;7.43;5.25;;;;;;;20.33;43.36;96717.81;10321110;28;20389;-80
2022/04/19 23:24:09;;;;;;;6.65;4.72;;;;;;;20.32;43.67;96713.53;10357779;28;20117;-80
2022/04/19 23:29:28;;;;;;;5.30;4.55;;;;;;;20.32;43.76;96716.22;10345567;28;20042;-80
2022/04/19 23:34:49;;;;;;;6.03;4.70;;;;;;;20.30;43.64;96718.47;10372779;28;20100;-80
2022/04/19 23:40:09;;;;;;;6.57;4.80;;;;;;;20.29;43.64;96711.50;10369112;28;20072;-80
2022/04/19 23:45:28;;;;;;;5.95;4.57;;;;;;;20.29;43.59;96721.53;10354550;28;20042;-80
2022/04/19 23:50:48;;;;;;;5.13;4.57;;;;;;;20.28;43.63;96714.53;10365421;28;20137;-80
2022/04/19 23:56:08;;;;;;;6.10;4.30;;;;;;;20.26;43.63;96716.75;10355967;28;20049;-80
